Startpagina
METAR-TAF:

METAR-TAF

Vliegvelden :

Luchthaven Baia Mare

Baia Mare, Roemenië

breedte: 47-40N, lengte: 023-35E, hoogte: 218 m

Actueel weer

Dit bericht is 30 minuten geleden gemaakt, om 11:00 UTC
Wind 7 kt uit het westen, variërend tussen het zuidwesten en het noordwesten
Temperatuur
Druk 1019 hPa
Zicht 10 km of meer
Weinig wolken op 3500 ft
Verspreide wolken op 19000 ft

METAR: LRBM 201100Z AUTO 26007KT 230V310 9999 FEW035 SCT190 ///// Q1019

Tijdstip: 14:30 (11:30 UTC)

Verwachting

Dit bericht is 21 uur en het 30 minuten geleden gemaakt, om 14:00 UTC
Verwachting geldig van 19 om 15 UTC tot 19 om 24 UTC
Wind 8 kt uit het noordwesten
Zicht 10 km of meer
Verspreide wolken op 4000 ft, Cumulonimbus.
Tijdelijke
van 19 om 15 UTC tot 19 om 17 UTC
onweer, lichte regen
Wijzigt naar
van 19 om 17 UTC tot 19 om 18 UTC

TAF: LRBM 191400Z 1915/1924 31008KT 9999 SCT040CB TEMPO 1915/1917 -TSRA BECMG 1917/1918 NSC

Waarnemingen en weersverwachtingen van meer dan 4000 vliegvelden (METAR en TAF).

De beschikbare stations zijn de gele en rode punten op de kaart.

Ga met uw muis naar het station om de naam te zien.

Klik dan om waarnemingen en weersverwachtingen te zien.

kaart wijzigen: klik op de groene knoppen met een zwart kruis om in te zoomen, op de groene knop met een streepje om uit te zoomen of op de groene pijlen voor aangrenzende kaarten.


METAR-TAF: